createdAt,value
2019-02-22T00:01:50.177Z,99.90
2019-02-22T00:04:20.426Z,99.90
2019-02-22T00:06:50.605Z,99.90
2019-02-22T00:09:20.768Z,99.90
2019-02-22T00:11:50.989Z,99.90
2019-02-22T00:14:21.284Z,99.90
2019-02-22T00:16:51.441Z,99.90
2019-02-22T00:19:21.650Z,99.90
2019-02-22T00:21:52.725Z,99.90
2019-02-22T00:24:22.971Z,99.90
2019-02-22T00:26:53.240Z,99.90
2019-02-22T00:29:23.403Z,99.90
2019-02-22T00:31:53.594Z,99.90
2019-02-22T00:34:23.841Z,99.90
2019-02-22T00:36:54.097Z,99.90
2019-02-22T00:39:24.347Z,99.90
2019-02-22T00:41:54.568Z,99.90
2019-02-22T00:44:24.894Z,99.90
2019-02-22T00:46:55.486Z,99.90
2019-02-22T00:49:25.746Z,99.90
2019-02-22T00:51:56.135Z,99.90
2019-02-22T00:54:26.553Z,99.90
2019-02-22T00:56:56.809Z,99.90
2019-02-22T00:59:27.043Z,99.90
2019-02-22T01:01:57.411Z,99.90
2019-02-22T01:04:27.704Z,99.90
2019-02-22T01:06:57.879Z,99.90
2019-02-22T01:09:28.182Z,99.90
2019-02-22T01:11:58.545Z,99.90
2019-02-22T01:14:28.896Z,99.90
2019-02-22T01:16:59.347Z,99.90
2019-02-22T01:19:29.534Z,99.90
2019-02-22T01:21:59.750Z,99.90
2019-02-22T01:24:31.026Z,99.90
2019-02-22T01:27:01.364Z,99.90
2019-02-22T01:29:31.726Z,99.90
2019-02-22T01:32:02.332Z,99.90
2019-02-22T01:34:32.720Z,99.90
2019-02-22T01:37:02.899Z,99.90
2019-02-22T01:39:33.398Z,99.90
2019-02-22T01:42:03.763Z,99.90
2019-02-22T01:44:34.148Z,99.90
2019-02-22T01:47:04.555Z,99.90
2019-02-22T01:49:34.922Z,99.90
2019-02-22T01:52:05.191Z,99.90
2019-02-22T01:54:35.546Z,99.90
2019-02-22T01:57:05.911Z,99.90
2019-02-22T01:59:36.203Z,99.90
2019-02-22T02:02:06.476Z,99.90
2019-02-22T02:04:36.791Z,99.90
2019-02-22T02:07:07.166Z,99.90
2019-02-22T02:09:37.530Z,99.90
2019-02-22T02:12:07.994Z,99.90
2019-02-22T02:14:38.350Z,99.90
2019-02-22T02:17:08.613Z,99.90
2019-02-22T02:19:38.823Z,99.90
2019-02-22T02:22:09.051Z,99.90
2019-02-22T02:24:39.275Z,99.90
2019-02-22T02:27:10.551Z,99.90
2019-02-22T02:29:40.736Z,99.90
2019-02-22T02:32:10.949Z,99.90
2019-02-22T02:34:41.142Z,99.90
2019-02-22T02:37:11.402Z,99.90
2019-02-22T02:39:41.618Z,99.90
2019-02-22T02:42:11.899Z,99.90
2019-02-22T02:44:42.158Z,99.90
2019-02-22T02:47:12.334Z,99.90
2019-02-22T02:49:42.551Z,99.90
2019-02-22T02:52:12.614Z,99.90
2019-02-22T02:54:42.900Z,99.90
2019-02-22T02:57:13.109Z,99.90
2019-02-22T02:59:43.252Z,99.90
2019-02-22T03:02:27.999Z,99.90
2019-02-22T03:04:58.268Z,99.90
2019-02-22T03:07:59.483Z,99.90
2019-02-22T03:10:31.463Z,99.90
2019-02-22T03:13:01.535Z,99.90
2019-02-22T03:15:31.785Z,99.90
2019-02-22T03:18:02.037Z,99.90
2019-02-22T03:20:32.209Z,99.90
2019-02-22T03:23:02.480Z,99.90
2019-02-22T03:25:32.720Z,99.90
2019-02-22T03:28:04.295Z,99.90
2019-02-22T03:30:34.420Z,99.90
2019-02-22T03:33:04.622Z,99.90
2019-02-22T03:35:34.876Z,99.90
2019-02-22T03:38:05.958Z,99.90
2019-02-22T03:40:36.291Z,99.90
2019-02-22T03:43:06.567Z,99.90
2019-02-22T03:45:36.796Z,99.90
2019-02-22T03:48:06.925Z,99.90
2019-02-22T03:50:37.119Z,99.90
2019-02-22T03:53:13.086Z,99.90
2019-02-22T03:55:43.595Z,99.90
2019-02-22T03:58:13.978Z,99.90
2019-02-22T04:00:44.299Z,99.90
2019-02-22T04:03:14.534Z,99.90
2019-02-22T04:05:44.683Z,99.90
2019-02-22T04:08:14.857Z,99.90
2019-02-22T04:10:45.083Z,99.90
2019-02-22T04:13:15.244Z,99.90
2019-02-22T04:15:45.541Z,99.90
2019-02-22T04:18:15.797Z,99.90
2019-02-22T04:20:46.014Z,99.90
2019-02-22T04:23:16.234Z,99.90
2019-02-22T04:25:46.477Z,99.90
2019-02-22T04:28:17.542Z,99.90
2019-02-22T04:30:47.838Z,99.90
2019-02-22T04:33:18.231Z,99.90
2019-02-22T04:35:48.374Z,99.90
2019-02-22T04:38:18.556Z,99.90
2019-02-22T04:40:48.755Z,99.90
2019-02-22T04:43:18.923Z,99.90
2019-02-22T04:45:49.096Z,99.90
2019-02-22T04:48:19.331Z,99.90
2019-02-22T04:50:49.440Z,99.90
2019-02-22T04:53:19.663Z,99.90
2019-02-22T04:55:49.878Z,99.90
2019-02-22T04:58:20.105Z,99.90
2019-02-22T05:00:50.331Z,99.90
2019-02-22T05:03:20.498Z,99.90
2019-02-22T05:05:50.659Z,99.90
2019-02-22T05:08:21.060Z,99.90
2019-02-22T05:10:51.160Z,99.90
2019-02-22T05:13:21.429Z,99.90
2019-02-22T05:15:51.651Z,99.90
2019-02-22T05:18:21.817Z,99.90
2019-02-22T05:20:51.887Z,99.90
2019-02-22T05:23:22.181Z,99.90
2019-02-22T05:25:52.282Z,99.90
2019-02-22T05:28:22.446Z,99.90
2019-02-22T05:30:54.196Z,99.90
2019-02-22T05:33:24.475Z,99.90
2019-02-22T05:35:54.616Z,99.90
2019-02-22T05:38:24.826Z,99.90
2019-02-22T05:40:55.038Z,99.90
2019-02-22T05:43:25.179Z,99.90
2019-02-22T05:45:55.496Z,99.90
2019-02-22T05:48:25.827Z,99.90
2019-02-22T05:50:55.931Z,99.90
2019-02-22T05:53:26.150Z,99.90
2019-02-22T05:55:56.259Z,99.90
2019-02-22T05:58:26.413Z,99.90
2019-02-22T06:00:56.616Z,99.90
2019-02-22T06:03:26.872Z,99.90
2019-02-22T06:06:00.525Z,99.90
2019-02-22T06:08:30.747Z,99.90
2019-02-22T06:11:01.019Z,99.90
2019-02-22T06:13:35.616Z,99.90
2019-02-22T06:16:05.989Z,99.90
2019-02-22T06:18:40.045Z,99.90
2019-02-22T06:21:15.315Z,99.90
2019-02-22T06:23:46.026Z,99.90
2019-02-22T06:26:17.222Z,99.90
2019-02-22T06:28:47.419Z,99.90
2019-02-22T06:31:17.713Z,99.90
2019-02-22T06:33:51.243Z,99.90
2019-02-22T06:36:21.464Z,99.90
2019-02-22T06:38:52.294Z,99.90
2019-02-22T06:41:22.525Z,99.90
2019-02-22T06:43:52.692Z,99.90
2019-02-22T06:46:22.915Z,99.90
2019-02-22T06:48:53.081Z,99.90
2019-02-22T06:51:23.310Z,99.90
2019-02-22T06:53:53.467Z,99.90
2019-02-22T06:56:24.338Z,99.90
2019-02-22T06:58:54.693Z,99.90
2019-02-22T07:01:24.903Z,99.90
2019-02-22T07:03:55.108Z,99.90
2019-02-22T07:06:25.521Z,99.90
2019-02-22T07:08:55.726Z,99.90
2019-02-22T07:11:32.822Z,99.90
2019-02-22T07:14:03.031Z,99.90
2019-02-22T07:16:33.302Z,99.90
2019-02-22T07:19:03.523Z,99.90
2019-02-22T07:21:49.089Z,99.90
2019-02-22T07:24:05.637Z,99.90
2019-02-22T07:26:35.776Z,99.90
2019-02-22T07:29:06.091Z,99.90
2019-02-22T07:31:36.287Z,99.90
2019-02-22T07:34:06.701Z,99.90
2019-02-22T07:36:37.114Z,99.90
2019-02-22T07:39:07.841Z,99.90
2019-02-22T07:41:38.169Z,99.90
2019-02-22T07:44:08.562Z,99.90
2019-02-22T07:46:38.772Z,99.90
2019-02-22T07:49:08.992Z,99.90
2019-02-22T07:51:39.206Z,99.90
2019-02-22T07:54:09.323Z,99.90
2019-02-22T07:56:39.555Z,99.90
2019-02-22T07:59:09.663Z,99.90
2019-02-22T08:01:47.577Z,99.90
2019-02-22T08:04:11.550Z,99.90
2019-02-22T08:06:42.607Z,99.90
2019-02-22T08:09:12.967Z,99.90
2019-02-22T08:11:43.328Z,99.90
2019-02-22T08:14:13.451Z,99.90
2019-02-22T08:16:43.592Z,99.90
2019-02-22T08:19:13.800Z,99.90
2019-02-22T08:21:44.135Z,99.90
2019-02-22T08:24:14.240Z,99.90
2019-02-22T08:26:44.458Z,99.90
2019-02-22T08:29:14.728Z,99.90
2019-02-22T08:31:44.822Z,99.90
2019-02-22T08:34:15.126Z,99.90
2019-02-22T08:36:46.416Z,99.90
2019-02-22T08:39:16.605Z,99.90
2019-02-22T08:41:47.088Z,99.90
2019-02-22T08:44:19.202Z,99.90
2019-02-22T08:46:49.577Z,99.90
2019-02-22T08:49:20.358Z,99.90
2019-02-22T08:51:50.554Z,99.90
2019-02-22T08:54:20.804Z,99.90
2019-02-22T08:56:50.998Z,99.90
2019-02-22T08:59:21.284Z,99.90
2019-02-22T09:01:51.285Z,99.90
2019-02-22T09:04:21.612Z,99.90
2019-02-22T09:06:52.508Z,99.90
2019-02-22T09:09:22.667Z,99.90
2019-02-22T09:11:52.895Z,99.90
2019-02-22T09:14:23.070Z,99.90
2019-02-22T09:16:53.346Z,99.90
2019-02-22T09:19:23.627Z,99.90
2019-02-22T09:21:53.826Z,99.90
2019-02-22T09:24:24.001Z,99.90
2019-02-22T09:26:54.274Z,99.90
2019-02-22T09:29:24.502Z,99.90
2019-02-22T09:31:54.821Z,99.90
2019-02-22T09:34:24.994Z,99.90
2019-02-22T09:36:58.781Z,99.90
2019-02-22T09:39:28.971Z,99.90
2019-02-22T09:42:01.390Z,99.90
2019-02-22T09:44:31.702Z,99.90
2019-02-22T09:47:02.002Z,99.90
2019-02-22T09:49:32.258Z,99.90
2019-02-22T09:52:02.503Z,99.90
2019-02-22T09:54:32.651Z,99.90
2019-02-22T09:57:02.914Z,99.90
2019-02-22T09:59:33.303Z,99.90
2019-02-22T10:02:03.634Z,99.90
2019-02-22T10:04:33.832Z,99.90
2019-02-22T10:07:04.071Z,99.90
2019-02-22T10:09:39.426Z,99.90
2019-02-22T10:12:09.837Z,99.90
2019-02-22T10:14:42.707Z,99.90
2019-02-22T10:17:12.963Z,99.90
2019-02-22T10:19:43.199Z,99.90
2019-02-22T10:22:13.378Z,99.90
2019-02-22T10:24:43.284Z,99.90
2019-02-22T10:27:13.219Z,99.20
2019-02-22T10:29:43.426Z,99.10
2019-02-22T10:32:15.913Z,84.40
2019-02-22T10:34:45.639Z,82.20
2019-02-22T10:37:15.840Z,78.60
2019-02-22T10:39:47.016Z,72.80
2019-02-22T10:42:20.131Z,71.90
2019-02-22T10:44:50.500Z,66.60
2019-02-22T10:47:20.760Z,66.70
2019-02-22T10:49:50.780Z,64.90
2019-02-22T10:52:21.054Z,62.40
2019-02-22T10:54:50.901Z,66.70
2019-02-22T10:57:20.774Z,64.40
2019-02-22T10:59:50.695Z,61.80
2019-02-22T11:02:20.654Z,65.40
2019-02-22T11:04:50.533Z,63.00
2019-02-22T11:07:20.548Z,58.80
2019-02-22T11:09:50.708Z,59.40
2019-02-22T11:12:20.542Z,61.40
2019-02-22T11:14:50.451Z,62.00
2019-02-22T11:17:20.291Z,57.50
2019-02-22T11:19:50.179Z,59.00
2019-02-22T11:22:20.060Z,57.30
2019-02-22T11:24:49.948Z,58.90
2019-02-22T11:27:19.800Z,58.30
2019-02-22T11:29:49.703Z,57.50
2019-02-22T11:32:32.868Z,56.50
2019-02-22T11:35:03.060Z,56.30
2019-02-22T11:37:32.999Z,54.70
2019-02-22T11:40:04.074Z,53.60
2019-02-22T11:42:34.040Z,54.40
2019-02-22T11:45:04.106Z,53.50
2019-02-22T11:47:34.211Z,52.20
2019-02-22T11:50:04.425Z,48.30
2019-02-22T11:52:34.550Z,48.20
2019-02-22T11:55:05.392Z,48.20
2019-02-22T11:57:35.670Z,49.20
2019-02-22T12:00:08.027Z,46.90
2019-02-22T12:02:45.145Z,46.00
2019-02-22T12:05:15.142Z,47.10
2019-02-22T12:07:45.011Z,45.40
2019-02-22T12:10:15.340Z,45.00
2019-02-22T12:12:45.218Z,43.50
2019-02-22T12:15:15.169Z,42.30
2019-02-22T12:17:45.082Z,42.00
2019-02-22T12:20:15.074Z,43.40
2019-02-22T12:22:45.210Z,42.60
2019-02-22T12:25:15.241Z,42.00
2019-02-22T12:27:45.231Z,42.30
2019-02-22T12:30:15.835Z,40.40
2019-02-22T12:32:48.901Z,40.50
2019-02-22T12:35:25.955Z,40.80
2019-02-22T12:37:55.830Z,40.00
2019-02-22T12:40:26.186Z,39.50
2019-02-22T12:42:57.025Z,39.40
2019-02-22T12:45:26.985Z,38.90
2019-02-22T12:47:56.800Z,37.60
2019-02-22T12:50:26.649Z,40.30
2019-02-22T12:52:56.566Z,38.70
2019-02-22T12:55:26.403Z,40.30
2019-02-22T12:57:56.224Z,37.80
2019-02-22T13:00:26.255Z,38.10
2019-02-22T13:03:01.902Z,39.10
2019-02-22T13:05:27.611Z,35.10
2019-02-22T13:07:57.529Z,35.60
2019-02-22T13:10:29.645Z,38.20
2019-02-22T13:12:59.510Z,37.80
2019-02-22T13:15:29.676Z,37.30
2019-02-22T13:17:59.509Z,36.90
2019-02-22T13:20:29.392Z,37.80
2019-02-22T13:22:59.686Z,35.30
2019-02-22T13:25:29.861Z,38.20
2019-02-22T13:27:59.853Z,36.20
2019-02-22T13:30:30.544Z,36.10
2019-02-22T13:33:00.447Z,38.00
2019-02-22T13:35:30.579Z,34.10
2019-02-22T13:38:00.673Z,35.40
2019-02-22T13:40:30.920Z,37.00
2019-02-22T13:43:01.146Z,38.40
2019-02-22T13:45:32.461Z,39.30
2019-02-22T13:48:02.416Z,37.60
2019-02-22T13:50:32.349Z,38.50
2019-02-22T13:53:02.328Z,36.90
2019-02-22T13:55:32.181Z,36.60
2019-02-22T13:58:02.045Z,35.70
2019-02-22T14:00:31.945Z,37.50
2019-02-22T14:03:01.846Z,34.80
2019-02-22T14:05:31.696Z,35.20
2019-02-22T14:08:01.565Z,35.20
2019-02-22T14:10:31.412Z,34.60
2019-02-22T14:13:01.262Z,35.80
2019-02-22T14:15:38.030Z,35.50
2019-02-22T14:18:02.645Z,36.70
2019-02-22T14:20:32.632Z,35.30
2019-02-22T14:23:03.583Z,35.50
2019-02-22T14:25:33.865Z,34.40
2019-02-22T14:28:03.740Z,35.20
2019-02-22T14:30:33.723Z,33.70
2019-02-22T14:33:03.579Z,32.80
2019-02-22T14:35:33.493Z,32.90
2019-02-22T14:38:03.716Z,33.00
2019-02-22T14:40:33.745Z,31.30
2019-02-22T14:43:03.554Z,31.30
2019-02-22T14:45:33.600Z,29.20
2019-02-22T14:48:04.429Z,28.50
2019-02-22T14:50:35.323Z,28.20
2019-02-22T14:53:06.518Z,28.40
2019-02-22T14:55:36.901Z,27.50
2019-02-22T14:58:07.223Z,28.40
2019-02-22T15:00:37.553Z,28.80
2019-02-22T15:03:07.828Z,28.60
2019-02-22T15:05:38.153Z,27.90
2019-02-22T15:08:08.713Z,29.00
2019-02-22T15:10:39.172Z,28.90
2019-02-22T15:13:12.588Z,27.80
2019-02-22T15:16:00.242Z,27.90
2019-02-22T15:18:23.847Z,27.70
2019-02-22T15:20:54.693Z,28.00
2019-02-22T15:23:25.306Z,29.10
2019-02-22T15:25:55.728Z,29.10
2019-02-22T15:28:26.559Z,28.90
2019-02-22T15:30:57.223Z,28.80
2019-02-22T15:33:27.520Z,29.70
2019-02-22T15:35:57.499Z,29.10
2019-02-22T15:38:28.112Z,29.10
2019-02-22T15:41:01.214Z,28.20
2019-02-22T15:43:32.603Z,28.10
2019-02-22T15:46:11.775Z,29.10
2019-02-22T15:48:34.176Z,30.00
2019-02-22T15:51:07.445Z,31.50
2019-02-22T15:53:38.773Z,32.20
2019-02-22T15:56:10.847Z,31.80
2019-02-22T15:58:59.911Z,32.10
2019-02-22T16:01:39.278Z,31.50
2019-02-22T16:04:31.428Z,31.10
2019-02-22T16:07:02.275Z,32.10
2019-02-22T16:09:35.287Z,32.90
2019-02-22T16:12:06.024Z,32.90
2019-02-22T16:14:36.863Z,32.80
2019-02-22T16:17:07.489Z,32.10
2019-02-22T16:19:38.838Z,31.80
2019-02-22T16:22:09.831Z,31.90
2019-02-22T16:24:40.592Z,32.50
2019-02-22T16:27:10.533Z,33.00
2019-02-22T16:29:40.361Z,33.40
2019-02-22T16:32:10.294Z,35.30
2019-02-22T16:34:43.421Z,36.30
2019-02-22T16:37:11.705Z,37.90
2019-02-22T16:39:41.540Z,38.30
2019-02-22T16:42:11.445Z,39.10
2019-02-22T16:44:41.292Z,41.50
2019-02-22T16:47:11.119Z,43.60
2019-02-22T16:49:41.027Z,45.60
2019-02-22T16:52:11.873Z,46.80
2019-02-22T16:54:41.715Z,48.20
2019-02-22T16:57:11.620Z,50.20
2019-02-22T16:59:41.497Z,52.50
2019-02-22T17:02:11.400Z,54.70
2019-02-22T17:04:41.337Z,56.70
2019-02-22T17:07:11.284Z,59.20
2019-02-22T17:09:41.267Z,61.70
2019-02-22T17:12:11.154Z,63.60
2019-02-22T17:14:40.992Z,67.00
2019-02-22T17:17:10.847Z,70.00
2019-02-22T17:19:40.821Z,75.30
2019-02-22T17:22:10.658Z,80.70
2019-02-22T17:24:40.492Z,82.80
2019-02-22T17:27:10.563Z,87.80
2019-02-22T17:29:40.389Z,91.20
2019-02-22T17:32:10.228Z,92.10
2019-02-22T17:34:40.304Z,93.10
2019-02-22T17:37:10.549Z,92.30
2019-02-22T17:39:40.787Z,93.50
2019-02-22T17:42:10.981Z,93.20
2019-02-22T17:44:41.158Z,93.90
2019-02-22T17:47:11.330Z,94.50
2019-02-22T17:49:41.631Z,96.20
2019-02-22T17:52:11.841Z,96.90
2019-02-22T17:54:45.136Z,97.50
2019-02-22T17:57:15.409Z,97.60
2019-02-22T17:59:47.068Z,97.80
2019-02-22T18:02:17.309Z,96.90
2019-02-22T18:04:47.491Z,97.30
2019-02-22T18:07:17.676Z,98.20
2019-02-22T18:09:48.048Z,98.70
2019-02-22T18:12:18.151Z,98.80
2019-02-22T18:14:48.391Z,98.50
2019-02-22T18:17:18.615Z,99.20
2019-02-22T18:19:48.915Z,98.70
2019-02-22T18:22:25.871Z,98.70
2019-02-22T18:24:50.980Z,98.90
2019-02-22T18:27:21.174Z,99.20
2019-02-22T18:29:51.337Z,99.40
2019-02-22T18:32:21.525Z,99.60
2019-02-22T18:34:51.639Z,99.80
2019-02-22T18:37:21.901Z,99.50
2019-02-22T18:39:52.136Z,99.70
2019-02-22T18:42:22.281Z,99.90
2019-02-22T18:44:52.524Z,99.80
2019-02-22T18:47:22.860Z,99.80
2019-02-22T18:49:53.101Z,99.70
2019-02-22T18:52:23.262Z,99.90
2019-02-22T18:54:53.516Z,99.90
2019-02-22T18:57:24.756Z,99.90
2019-02-22T18:59:55.031Z,99.90
2019-02-22T19:02:25.282Z,99.90
2019-02-22T19:07:27.283Z,99.90
2019-02-22T19:09:57.649Z,98.60
2019-02-22T19:12:28.018Z,98.50
2019-02-22T19:14:58.264Z,99.20
2019-02-22T19:17:30.648Z,99.50
2019-02-22T19:20:00.387Z,99.90
2019-02-22T19:22:30.917Z,99.90
2019-02-22T19:25:01.140Z,99.90
2019-02-22T19:27:31.550Z,99.90
2019-02-22T19:30:01.938Z,99.90
2019-02-22T19:32:32.164Z,99.90
2019-02-22T19:35:02.395Z,99.90
2019-02-22T19:37:33.107Z,99.90
2019-02-22T19:40:03.612Z,99.90
2019-02-22T19:42:33.710Z,99.90
2019-02-22T19:45:04.017Z,99.90
2019-02-22T19:47:41.479Z,99.90
2019-02-22T19:50:06.804Z,99.90
2019-02-22T19:52:37.108Z,99.90
2019-02-22T19:55:10.803Z,99.90
2019-02-22T19:57:40.384Z,99.90
2019-02-22T20:00:13.859Z,99.90
2019-02-22T20:02:44.601Z,99.90
2019-02-22T20:05:15.425Z,99.90
2019-02-22T20:07:48.902Z,99.90
2019-02-22T20:10:20.385Z,99.90
2019-02-22T20:12:50.819Z,99.90
2019-02-22T20:15:21.472Z,99.90
2019-02-22T20:17:54.426Z,99.90
2019-02-22T20:20:23.898Z,99.90
2019-02-22T20:22:54.262Z,99.90
2019-02-22T20:25:24.607Z,99.90
2019-02-22T20:27:54.883Z,99.90
2019-02-22T20:30:25.257Z,99.90
2019-02-22T20:32:55.537Z,99.90
2019-02-22T20:35:25.861Z,99.90
2019-02-22T20:37:56.071Z,99.90
2019-02-22T20:40:26.342Z,99.90
2019-02-22T20:42:56.460Z,99.90
2019-02-22T20:45:26.728Z,99.90
2019-02-22T20:48:04.769Z,99.90
2019-02-22T20:50:28.872Z,99.90
2019-02-22T20:52:59.090Z,99.90
2019-02-22T20:55:29.317Z,99.90
2019-02-22T20:57:59.518Z,99.90
2019-02-22T21:00:29.751Z,99.90
2019-02-22T21:03:01.013Z,99.90
2019-02-22T21:05:31.217Z,99.90
2019-02-22T21:08:01.499Z,99.90
2019-02-22T21:10:31.761Z,99.90
2019-02-22T21:13:02.248Z,99.90
2019-02-22T21:15:32.417Z,99.90
2019-02-22T21:18:02.679Z,99.90
2019-02-22T21:20:32.892Z,99.90
2019-02-22T21:23:03.074Z,99.90
2019-02-22T21:25:33.315Z,99.90
2019-02-22T21:28:03.571Z,99.90
2019-02-22T21:30:33.741Z,99.90
2019-02-22T21:33:03.895Z,99.90
2019-02-22T21:35:34.019Z,99.90
2019-02-22T21:38:04.101Z,99.90
2019-02-22T21:40:34.432Z,99.90
2019-02-22T21:43:04.696Z,99.90
2019-02-22T21:45:34.865Z,99.90
2019-02-22T21:48:05.010Z,99.90
2019-02-22T21:50:35.237Z,99.90
2019-02-22T21:53:05.408Z,99.90
2019-02-22T21:55:35.569Z,99.90
2019-02-22T21:58:05.822Z,99.90
2019-02-22T22:00:36.025Z,99.90
2019-02-22T22:03:06.238Z,99.90
2019-02-22T22:05:37.340Z,99.90
2019-02-22T22:08:07.565Z,99.90
2019-02-22T22:10:37.881Z,99.90
2019-02-22T22:13:08.012Z,99.90
2019-02-22T22:15:38.224Z,99.90
2019-02-22T22:18:08.455Z,99.90
2019-02-22T22:20:38.735Z,99.90
2019-02-22T22:23:08.882Z,99.90
2019-02-22T22:25:39.054Z,99.90
2019-02-22T22:28:09.274Z,99.90
2019-02-22T22:30:39.675Z,99.90
2019-02-22T22:33:10.344Z,99.90
2019-02-22T22:35:40.516Z,99.90
2019-02-22T22:38:10.778Z,99.90
2019-02-22T22:40:41.062Z,99.90
2019-02-22T22:43:11.167Z,99.90
2019-02-22T22:45:41.393Z,99.90
2019-02-22T22:48:11.619Z,99.90
2019-02-22T22:50:42.058Z,99.90
2019-02-22T22:53:12.379Z,99.90
2019-02-22T22:55:42.650Z,99.90
2019-02-22T22:58:12.848Z,99.90
2019-02-22T23:01:16.209Z,99.90
2019-02-22T23:03:46.556Z,99.90
2019-02-22T23:06:17.983Z,99.90
2019-02-22T23:08:48.365Z,99.90
2019-02-22T23:11:19.133Z,99.90
2019-02-22T23:13:49.421Z,99.90
2019-02-22T23:16:19.839Z,99.90
2019-02-22T23:19:01.150Z,99.90
2019-02-22T23:21:22.497Z,99.90
2019-02-22T23:23:52.821Z,99.90
2019-02-22T23:26:23.012Z,99.90
2019-02-22T23:28:53.200Z,99.90
2019-02-22T23:31:23.406Z,99.90
2019-02-22T23:33:53.623Z,99.90
2019-02-22T23:36:23.850Z,99.90
2019-02-22T23:38:54.062Z,99.90
2019-02-22T23:41:24.237Z,99.90
2019-02-22T23:43:54.410Z,99.90
2019-02-22T23:46:24.696Z,99.90
2019-02-22T23:48:54.801Z,99.90
2019-02-22T23:51:24.969Z,99.90
2019-02-22T23:53:55.267Z,99.90
2019-02-22T23:56:25.581Z,99.90
2019-02-22T23:58:55.704Z,99.90
